sensor_id;sensor_type;location;lat;lon;timestamp;temperature;humidity
13572;DHT22;6857;53.484;10.216;2024-03-29T00:00:36;7.70;99.90
13572;DHT22;6857;53.484;10.216;2024-03-29T00:03:01;7.70;99.90
13572;DHT22;6857;53.484;10.216;2024-03-29T00:05:28;7.70;99.90
13572;DHT22;6857;53.484;10.216;2024-03-29T00:07:53;7.70;99.90
13572;DHT22;6857;53.484;10.216;2024-03-29T00:10:19;7.60;99.90
13572;DHT22;6857;53.484;10.216;2024-03-29T00:12:45;7.60;99.90
13572;DHT22;6857;53.484;10.216;2024-03-29T00:15:11;7.50;99.90
13572;DHT22;6857;53.484;10.216;2024-03-29T00:17:37;7.40;99.90
13572;DHT22;6857;53.484;10.216;2024-03-29T00:20:04;7.40;99.90
13572;DHT22;6857;53.484;10.216;2024-03-29T00:22:31;7.30;99.90
13572;DHT22;6857;53.484;10.216;2024-03-29T00:24:58;7.40;99.90
13572;DHT22;6857;53.484;10.216;2024-03-29T00:27:24;7.30;99.90
13572;DHT22;6857;53.484;10.216;2024-03-29T00:29:52;7.30;99.90
13572;DHT22;6857;53.484;10.216;2024-03-29T00:32:23;7.20;99.90
13572;DHT22;6857;53.484;10.216;2024-03-29T00:34:52;7.20;99.90
13572;DHT22;6857;53.484;10.216;2024-03-29T00:37:18;7.10;99.90
13572;DHT22;6857;53.484;10.216;2024-03-29T00:39:44;7.10;99.90
13572;DHT22;6857;53.484;10.216;2024-03-29T00:42:10;7.20;99.90
13572;DHT22;6857;53.484;10.216;2024-03-29T00:44:43;7.10;99.90
13572;DHT22;6857;53.484;10.216;2024-03-29T00:47:09;7.10;99.90
13572;DHT22;6857;53.484;10.216;2024-03-29T00:49:35;6.90;99.90
13572;DHT22;6857;53.484;10.216;2024-03-29T00:52:02;7.00;99.90
13572;DHT22;6857;53.484;10.216;2024-03-29T00:54:28;7.00;99.90
13572;DHT22;6857;53.484;10.216;2024-03-29T00:56:53;7.00;99.90
13572;DHT22;6857;53.484;10.216;2024-03-29T00:59:19;7.00;99.90
13572;DHT22;6857;53.484;10.216;2024-03-29T01:01:45;7.00;99.90
13572;DHT22;6857;53.484;10.216;2024-03-29T01:04:11;7.00;99.90
13572;DHT22;6857;53.484;10.216;2024-03-29T01:06:37;7.00;99.90
13572;DHT22;6857;53.484;10.216;2024-03-29T01:09:03;7.00;99.90
13572;DHT22;6857;53.484;10.216;2024-03-29T01:11:30;7.00;99.90
13572;DHT22;6857;53.484;10.216;2024-03-29T01:13:55;7.00;99.90
13572;DHT22;6857;53.484;10.216;2024-03-29T01:16:21;7.00;99.90
13572;DHT22;6857;53.484;10.216;2024-03-29T01:18:46;6.90;99.90
13572;DHT22;6857;53.484;10.216;2024-03-29T01:21:13;6.90;99.90
13572;DHT22;6857;53.484;10.216;2024-03-29T01:23:39;7.00;99.90
13572;DHT22;6857;53.484;10.216;2024-03-29T01:26:08;6.90;99.90
13572;DHT22;6857;53.484;10.216;2024-03-29T01:28:36;6.80;99.90
13572;DHT22;6857;53.484;10.216;2024-03-29T01:31:03;6.80;99.90
13572;DHT22;6857;53.484;10.216;2024-03-29T01:33:28;6.80;99.90
13572;DHT22;6857;53.484;10.216;2024-03-29T01:35:58;6.70;99.90
13572;DHT22;6857;53.484;10.216;2024-03-29T01:38:23;6.70;99.90
13572;DHT22;6857;53.484;10.216;2024-03-29T01:40:49;6.70;99.90
13572;DHT22;6857;53.484;10.216;2024-03-29T01:43:14;6.60;99.90
13572;DHT22;6857;53.484;10.216;2024-03-29T01:45:41;6.90;99.90
13572;DHT22;6857;53.484;10.216;2024-03-29T01:48:09;6.60;99.90
13572;DHT22;6857;53.484;10.216;2024-03-29T01:50:35;6.50;99.90
13572;DHT22;6857;53.484;10.216;2024-03-29T01:53:02;6.50;99.90
13572;DHT22;6857;53.484;10.216;2024-03-29T01:55:28;6.40;99.90
13572;DHT22;6857;53.484;10.216;2024-03-29T01:57:55;6.40;99.90
13572;DHT22;6857;53.484;10.216;2024-03-29T02:00:21;6.40;99.90
13572;DHT22;6857;53.484;10.216;2024-03-29T02:02:47;6.40;99.90
13572;DHT22;6857;53.484;10.216;2024-03-29T02:05:13;6.40;99.90
13572;DHT22;6857;53.484;10.216;2024-03-29T02:07:39;6.30;99.90
13572;DHT22;6857;53.484;10.216;2024-03-29T02:10:05;6.30;99.90
13572;DHT22;6857;53.484;10.216;2024-03-29T02:12:33;6.30;99.90
13572;DHT22;6857;53.484;10.216;2024-03-29T02:14:59;6.30;99.90
13572;DHT22;6857;53.484;10.216;2024-03-29T02:17:27;6.30;99.90
13572;DHT22;6857;53.484;10.216;2024-03-29T02:19:53;6.30;99.90
13572;DHT22;6857;53.484;10.216;2024-03-29T02:22:20;6.20;99.90
13572;DHT22;6857;53.484;10.216;2024-03-29T02:24:47;6.20;99.90
13572;DHT22;6857;53.484;10.216;2024-03-29T02:27:13;6.20;99.90
13572;DHT22;6857;53.484;10.216;2024-03-29T02:29:39;6.20;99.90
13572;DHT22;6857;53.484;10.216;2024-03-29T02:32:04;6.10;99.90
13572;DHT22;6857;53.484;10.216;2024-03-29T02:34:30;6.10;99.90
13572;DHT22;6857;53.484;10.216;2024-03-29T02:36:55;6.10;99.90
13572;DHT22;6857;53.484;10.216;2024-03-29T02:39:22;6.10;99.90
13572;DHT22;6857;53.484;10.216;2024-03-29T02:41:48;6.10;99.90
13572;DHT22;6857;53.484;10.216;2024-03-29T02:44:13;6.00;99.90
13572;DHT22;6857;53.484;10.216;2024-03-29T02:46:41;6.10;99.90
13572;DHT22;6857;53.484;10.216;2024-03-29T02:49:07;6.00;99.90
13572;DHT22;6857;53.484;10.216;2024-03-29T02:51:33;6.00;99.90
13572;DHT22;6857;53.484;10.216;2024-03-29T02:53:58;6.00;99.90
13572;DHT22;6857;53.484;10.216;2024-03-29T02:56:24;6.00;99.90
13572;DHT22;6857;53.484;10.216;2024-03-29T02:58:49;6.00;99.90
13572;DHT22;6857;53.484;10.216;2024-03-29T03:01:15;6.00;99.90
13572;DHT22;6857;53.484;10.216;2024-03-29T03:03:40;6.00;99.90
13572;DHT22;6857;53.484;10.216;2024-03-29T03:06:06;6.00;99.90
13572;DHT22;6857;53.484;10.216;2024-03-29T03:08:31;6.10;99.90
13572;DHT22;6857;53.484;10.216;2024-03-29T03:11:15;6.00;99.90
13572;DHT22;6857;53.484;10.216;2024-03-29T03:13:41;6.00;99.90
13572;DHT22;6857;53.484;10.216;2024-03-29T03:16:07;6.00;99.90
13572;DHT22;6857;53.484;10.216;2024-03-29T03:18:32;6.00;99.90
13572;DHT22;6857;53.484;10.216;2024-03-29T03:20:58;6.00;99.90
13572;DHT22;6857;53.484;10.216;2024-03-29T03:23:24;6.00;99.90
13572;DHT22;6857;53.484;10.216;2024-03-29T03:25:59;6.00;99.90
13572;DHT22;6857;53.484;10.216;2024-03-29T03:28:25;6.00;99.90
13572;DHT22;6857;53.484;10.216;2024-03-29T03:30:52;6.00;99.90
13572;DHT22;6857;53.484;10.216;2024-03-29T03:33:18;6.10;99.90
13572;DHT22;6857;53.484;10.216;2024-03-29T03:35:44;6.10;99.90
13572;DHT22;6857;53.484;10.216;2024-03-29T03:38:10;6.10;99.90
13572;DHT22;6857;53.484;10.216;2024-03-29T03:40:36;6.10;99.90
13572;DHT22;6857;53.484;10.216;2024-03-29T03:43:02;6.10;99.90
13572;DHT22;6857;53.484;10.216;2024-03-29T03:45:28;6.10;99.90
13572;DHT22;6857;53.484;10.216;2024-03-29T03:47:54;6.10;99.90
13572;DHT22;6857;53.484;10.216;2024-03-29T03:50:20;6.20;99.90
13572;DHT22;6857;53.484;10.216;2024-03-29T03:52:46;6.20;99.90
13572;DHT22;6857;53.484;10.216;2024-03-29T03:55:11;6.20;99.90
13572;DHT22;6857;53.484;10.216;2024-03-29T03:57:37;6.20;99.90
13572;DHT22;6857;53.484;10.216;2024-03-29T04:00:03;6.20;99.90
13572;DHT22;6857;53.484;10.216;2024-03-29T04:02:28;6.20;99.90
13572;DHT22;6857;53.484;10.216;2024-03-29T04:04:54;6.10;99.90
13572;DHT22;6857;53.484;10.216;2024-03-29T04:07:20;6.20;99.90
13572;DHT22;6857;53.484;10.216;2024-03-29T04:09:45;6.20;99.90
13572;DHT22;6857;53.484;10.216;2024-03-29T04:12:11;6.10;99.90
13572;DHT22;6857;53.484;10.216;2024-03-29T04:14:37;6.10;99.90
13572;DHT22;6857;53.484;10.216;2024-03-29T04:17:02;6.10;99.90
13572;DHT22;6857;53.484;10.216;2024-03-29T04:19:28;6.00;99.90
13572;DHT22;6857;53.484;10.216;2024-03-29T04:21:53;6.00;99.90
13572;DHT22;6857;53.484;10.216;2024-03-29T04:24:19;6.00;99.90
13572;DHT22;6857;53.484;10.216;2024-03-29T04:26:44;6.00;99.90
13572;DHT22;6857;53.484;10.216;2024-03-29T04:29:12;6.10;99.90
13572;DHT22;6857;53.484;10.216;2024-03-29T04:31:38;6.10;99.90
13572;DHT22;6857;53.484;10.216;2024-03-29T04:34:03;6.10;99.90
13572;DHT22;6857;53.484;10.216;2024-03-29T04:36:29;6.20;99.90
13572;DHT22;6857;53.484;10.216;2024-03-29T04:38:54;6.10;99.90
13572;DHT22;6857;53.484;10.216;2024-03-29T04:41:20;6.20;99.90
13572;DHT22;6857;53.484;10.216;2024-03-29T04:43:46;6.20;99.90
13572;DHT22;6857;53.484;10.216;2024-03-29T04:46:12;6.30;99.90
13572;DHT22;6857;53.484;10.216;2024-03-29T04:48:39;6.30;99.90
13572;DHT22;6857;53.484;10.216;2024-03-29T04:51:06;6.40;99.90
13572;DHT22;6857;53.484;10.216;2024-03-29T04:53:32;6.40;99.90
13572;DHT22;6857;53.484;10.216;2024-03-29T04:55:58;6.40;99.90
13572;DHT22;6857;53.484;10.216;2024-03-29T04:58:27;6.50;99.90
13572;DHT22;6857;53.484;10.216;2024-03-29T05:00:53;6.50;99.90
13572;DHT22;6857;53.484;10.216;2024-03-29T05:03:20;6.50;99.90
13572;DHT22;6857;53.484;10.216;2024-03-29T05:05:46;6.60;99.90
13572;DHT22;6857;53.484;10.216;2024-03-29T05:08:12;6.60;99.90
13572;DHT22;6857;53.484;10.216;2024-03-29T05:10:42;6.60;99.90
13572;DHT22;6857;53.484;10.216;2024-03-29T05:13:07;6.60;99.90
13572;DHT22;6857;53.484;10.216;2024-03-29T05:15:33;6.60;99.90
13572;DHT22;6857;53.484;10.216;2024-03-29T05:17:59;6.70;99.90
13572;DHT22;6857;53.484;10.216;2024-03-29T05:20:25;6.70;99.90
13572;DHT22;6857;53.484;10.216;2024-03-29T05:22:50;6.80;99.90
13572;DHT22;6857;53.484;10.216;2024-03-29T05:25:16;6.80;99.90
13572;DHT22;6857;53.484;10.216;2024-03-29T05:27:41;6.80;99.90
13572;DHT22;6857;53.484;10.216;2024-03-29T05:30:07;6.80;99.90
13572;DHT22;6857;53.484;10.216;2024-03-29T05:32:35;6.80;99.90
13572;DHT22;6857;53.484;10.216;2024-03-29T05:35:01;6.80;99.90
13572;DHT22;6857;53.484;10.216;2024-03-29T05:37:26;6.80;99.90
13572;DHT22;6857;53.484;10.216;2024-03-29T05:39:52;6.90;99.90
13572;DHT22;6857;53.484;10.216;2024-03-29T05:42:31;6.90;99.90
13572;DHT22;6857;53.484;10.216;2024-03-29T05:44:56;6.90;99.90
13572;DHT22;6857;53.484;10.216;2024-03-29T05:47:22;6.90;99.90
13572;DHT22;6857;53.484;10.216;2024-03-29T05:49:48;6.90;99.90
13572;DHT22;6857;53.484;10.216;2024-03-29T05:52:14;6.70;99.90
13572;DHT22;6857;53.484;10.216;2024-03-29T05:54:40;6.90;99.90
13572;DHT22;6857;53.484;10.216;2024-03-29T05:57:06;6.90;99.90
13572;DHT22;6857;53.484;10.216;2024-03-29T05:59:35;6.90;99.90
13572;DHT22;6857;53.484;10.216;2024-03-29T06:02:01;6.90;99.90
13572;DHT22;6857;53.484;10.216;2024-03-29T06:04:26;6.90;99.90
13572;DHT22;6857;53.484;10.216;2024-03-29T06:06:59;7.00;99.90
13572;DHT22;6857;53.484;10.216;2024-03-29T06:09:25;7.00;99.90
13572;DHT22;6857;53.484;10.216;2024-03-29T06:11:50;7.00;99.90
13572;DHT22;6857;53.484;10.216;2024-03-29T06:14:16;7.10;99.90
13572;DHT22;6857;53.484;10.216;2024-03-29T06:17:00;7.10;99.90
13572;DHT22;6857;53.484;10.216;2024-03-29T06:19:44;7.20;99.90
13572;DHT22;6857;53.484;10.216;2024-03-29T06:22:09;7.20;99.90
13572;DHT22;6857;53.484;10.216;2024-03-29T06:24:35;7.20;99.90
13572;DHT22;6857;53.484;10.216;2024-03-29T06:27:01;7.30;99.90
13572;DHT22;6857;53.484;10.216;2024-03-29T06:29:26;7.30;99.90
13572;DHT22;6857;53.484;10.216;2024-03-29T06:31:52;7.30;99.90
13572;DHT22;6857;53.484;10.216;2024-03-29T06:34:17;7.40;99.90
13572;DHT22;6857;53.484;10.216;2024-03-29T06:36:43;7.40;99.90
13572;DHT22;6857;53.484;10.216;2024-03-29T06:39:09;7.50;99.90
13572;DHT22;6857;53.484;10.216;2024-03-29T06:41:34;7.50;99.90
13572;DHT22;6857;53.484;10.216;2024-03-29T06:44:00;7.60;99.90
13572;DHT22;6857;53.484;10.216;2024-03-29T06:46:25;7.60;99.90
13572;DHT22;6857;53.484;10.216;2024-03-29T06:48:51;7.60;99.90
13572;DHT22;6857;53.484;10.216;2024-03-29T06:51:16;7.70;99.90
13572;DHT22;6857;53.484;10.216;2024-03-29T06:53:43;7.70;99.90
13572;DHT22;6857;53.484;10.216;2024-03-29T06:56:09;7.70;99.90
13572;DHT22;6857;53.484;10.216;2024-03-29T06:58:34;7.80;99.90
13572;DHT22;6857;53.484;10.216;2024-03-29T07:01:00;7.80;99.90
13572;DHT22;6857;53.484;10.216;2024-03-29T07:03:26;7.90;99.90
13572;DHT22;6857;53.484;10.216;2024-03-29T07:05:51;7.90;99.90
13572;DHT22;6857;53.484;10.216;2024-03-29T07:08:17;7.90;99.90
13572;DHT22;6857;53.484;10.216;2024-03-29T07:10:42;8.00;99.90
13572;DHT22;6857;53.484;10.216;2024-03-29T07:13:08;8.00;99.90
13572;DHT22;6857;53.484;10.216;2024-03-29T07:15:35;8.10;99.90
13572;DHT22;6857;53.484;10.216;2024-03-29T07:18:01;8.20;99.90
13572;DHT22;6857;53.484;10.216;2024-03-29T07:20:29;8.10;99.90
13572;DHT22;6857;53.484;10.216;2024-03-29T07:22:54;8.20;99.90
13572;DHT22;6857;53.484;10.216;2024-03-29T07:25:20;8.20;99.90
13572;DHT22;6857;53.484;10.216;2024-03-29T07:27:46;8.30;99.90
13572;DHT22;6857;53.484;10.216;2024-03-29T07:30:12;8.30;99.90
13572;DHT22;6857;53.484;10.216;2024-03-29T07:32:39;8.40;99.90
13572;DHT22;6857;53.484;10.216;2024-03-29T07:35:05;8.50;99.90
13572;DHT22;6857;53.484;10.216;2024-03-29T07:37:30;8.50;99.90
13572;DHT22;6857;53.484;10.216;2024-03-29T07:39:56;8.60;99.90
13572;DHT22;6857;53.484;10.216;2024-03-29T07:42:21;8.70;99.90
13572;DHT22;6857;53.484;10.216;2024-03-29T07:44:47;8.70;99.90
13572;DHT22;6857;53.484;10.216;2024-03-29T07:47:13;8.80;99.90
13572;DHT22;6857;53.484;10.216;2024-03-29T07:49:40;8.90;99.90
13572;DHT22;6857;53.484;10.216;2024-03-29T07:52:05;8.90;99.90
13572;DHT22;6857;53.484;10.216;2024-03-29T07:54:32;9.00;99.90
13572;DHT22;6857;53.484;10.216;2024-03-29T07:56:58;9.00;99.90
13572;DHT22;6857;53.484;10.216;2024-03-29T07:59:23;9.10;99.90
13572;DHT22;6857;53.484;10.216;2024-03-29T08:01:49;9.20;99.90
13572;DHT22;6857;53.484;10.216;2024-03-29T08:04:14;9.20;99.90
13572;DHT22;6857;53.484;10.216;2024-03-29T08:06:40;9.20;99.90
13572;DHT22;6857;53.484;10.216;2024-03-29T08:09:06;9.10;99.90
13572;DHT22;6857;53.484;10.216;2024-03-29T08:11:31;8.90;99.90
13572;DHT22;6857;53.484;10.216;2024-03-29T08:13:57;9.20;99.90
13572;DHT22;6857;53.484;10.216;2024-03-29T08:16:22;9.20;99.90
13572;DHT22;6857;53.484;10.216;2024-03-29T08:18:48;9.20;99.90
13572;DHT22;6857;53.484;10.216;2024-03-29T08:21:14;9.20;99.90
13572;DHT22;6857;53.484;10.216;2024-03-29T08:23:40;9.10;99.90
13572;DHT22;6857;53.484;10.216;2024-03-29T08:26:06;9.00;99.90
13572;DHT22;6857;53.484;10.216;2024-03-29T08:28:33;8.90;99.90
13572;DHT22;6857;53.484;10.216;2024-03-29T08:31:06;8.90;99.90
13572;DHT22;6857;53.484;10.216;2024-03-29T08:33:34;8.90;99.90
13572;DHT22;6857;53.484;10.216;2024-03-29T08:36:06;8.80;99.90
13572;DHT22;6857;53.484;10.216;2024-03-29T08:38:31;8.80;99.90
13572;DHT22;6857;53.484;10.216;2024-03-29T08:40:57;8.80;99.90
13572;DHT22;6857;53.484;10.216;2024-03-29T08:43:23;8.80;99.90
13572;DHT22;6857;53.484;10.216;2024-03-29T08:45:49;8.80;99.90
13572;DHT22;6857;53.484;10.216;2024-03-29T08:48:14;8.80;99.90
13572;DHT22;6857;53.484;10.216;2024-03-29T08:50:40;8.60;99.90
13572;DHT22;6857;53.484;10.216;2024-03-29T08:53:06;8.80;99.90
13572;DHT22;6857;53.484;10.216;2024-03-29T08:55:33;8.80;99.90
13572;DHT22;6857;53.484;10.216;2024-03-29T08:58:00;8.90;99.90
13572;DHT22;6857;53.484;10.216;2024-03-29T09:00:27;8.90;99.90
13572;DHT22;6857;53.484;10.216;2024-03-29T09:02:53;8.90;99.90
13572;DHT22;6857;53.484;10.216;2024-03-29T09:05:19;8.90;99.90
13572;DHT22;6857;53.484;10.216;2024-03-29T09:07:45;9.00;99.90
13572;DHT22;6857;53.484;10.216;2024-03-29T09:10:11;9.10;99.90
13572;DHT22;6857;53.484;10.216;2024-03-29T09:12:37;9.10;99.90
13572;DHT22;6857;53.484;10.216;2024-03-29T09:15:03;9.20;99.90
13572;DHT22;6857;53.484;10.216;2024-03-29T09:17:34;9.30;99.90
13572;DHT22;6857;53.484;10.216;2024-03-29T09:19:59;9.30;99.90
13572;DHT22;6857;53.484;10.216;2024-03-29T09:22:25;9.40;99.90
13572;DHT22;6857;53.484;10.216;2024-03-29T09:24:50;9.40;99.90
13572;DHT22;6857;53.484;10.216;2024-03-29T09:27:16;9.40;99.90
13572;DHT22;6857;53.484;10.216;2024-03-29T09:29:42;9.40;99.90
13572;DHT22;6857;53.484;10.216;2024-03-29T09:32:08;9.40;99.90
13572;DHT22;6857;53.484;10.216;2024-03-29T09:34:34;9.40;99.90
13572;DHT22;6857;53.484;10.216;2024-03-29T09:36:59;9.40;99.90
13572;DHT22;6857;53.484;10.216;2024-03-29T09:39:25;9.40;99.90
13572;DHT22;6857;53.484;10.216;2024-03-29T09:41:50;9.40;99.90
13572;DHT22;6857;53.484;10.216;2024-03-29T09:44:17;9.40;99.90
13572;DHT22;6857;53.484;10.216;2024-03-29T09:46:46;9.50;99.90
13572;DHT22;6857;53.484;10.216;2024-03-29T09:49:13;9.50;99.90
13572;DHT22;6857;53.484;10.216;2024-03-29T09:51:40;9.50;99.90
13572;DHT22;6857;53.484;10.216;2024-03-29T09:54:06;9.60;99.90
13572;DHT22;6857;53.484;10.216;2024-03-29T09:56:37;9.50;99.90
13572;DHT22;6857;53.484;10.216;2024-03-29T09:59:03;9.40;99.90
13572;DHT22;6857;53.484;10.216;2024-03-29T10:01:29;9.40;99.90
13572;DHT22;6857;53.484;10.216;2024-03-29T10:03:56;9.40;99.90
13572;DHT22;6857;53.484;10.216;2024-03-29T10:06:24;9.40;99.90
13572;DHT22;6857;53.484;10.216;2024-03-29T10:08:49;9.40;99.90
13572;DHT22;6857;53.484;10.216;2024-03-29T10:11:15;9.40;99.90
13572;DHT22;6857;53.484;10.216;2024-03-29T10:13:45;9.50;99.90
13572;DHT22;6857;53.484;10.216;2024-03-29T10:16:11;9.50;99.90
13572;DHT22;6857;53.484;10.216;2024-03-29T10:18:38;9.50;99.90
13572;DHT22;6857;53.484;10.216;2024-03-29T10:21:06;9.50;99.90
13572;DHT22;6857;53.484;10.216;2024-03-29T10:23:33;9.40;99.90
13572;DHT22;6857;53.484;10.216;2024-03-29T10:26:01;9.70;99.90
13572;DHT22;6857;53.484;10.216;2024-03-29T10:28:31;10.90;99.90
13572;DHT22;6857;53.484;10.216;2024-03-29T10:31:02;11.50;99.90
13572;DHT22;6857;53.484;10.216;2024-03-29T10:33:33;11.80;99.90
13572;DHT22;6857;53.484;10.216;2024-03-29T10:36:00;11.60;99.90
13572;DHT22;6857;53.484;10.216;2024-03-29T10:38:26;11.80;99.90
13572;DHT22;6857;53.484;10.216;2024-03-29T10:40:53;11.30;99.90
13572;DHT22;6857;53.484;10.216;2024-03-29T10:43:19;10.80;99.90
13572;DHT22;6857;53.484;10.216;2024-03-29T10:45:47;10.50;99.90
13572;DHT22;6857;53.484;10.216;2024-03-29T10:48:15;10.40;99.90
13572;DHT22;6857;53.484;10.216;2024-03-29T10:50:41;10.30;99.90
13572;DHT22;6857;53.484;10.216;2024-03-29T10:53:08;10.10;99.90
13572;DHT22;6857;53.484;10.216;2024-03-29T10:55:35;10.10;99.90
13572;DHT22;6857;53.484;10.216;2024-03-29T10:58:02;10.00;99.90
13572;DHT22;6857;53.484;10.216;2024-03-29T11:00:29;10.00;99.90
13572;DHT22;6857;53.484;10.216;2024-03-29T11:05:46;10.00;99.90
13572;DHT22;6857;53.484;10.216;2024-03-29T11:08:13;10.00;99.90
13572;DHT22;6857;53.484;10.216;2024-03-29T11:10:42;10.00;99.90
13572;DHT22;6857;53.484;10.216;2024-03-29T11:16:04;10.00;99.90
13572;DHT22;6857;53.484;10.216;2024-03-29T11:18:30;10.10;99.90
13572;DHT22;6857;53.484;10.216;2024-03-29T11:20:57;10.10;99.90
13572;DHT22;6857;53.484;10.216;2024-03-29T11:23:26;10.10;99.90
13572;DHT22;6857;53.484;10.216;2024-03-29T11:25:53;10.10;99.90
13572;DHT22;6857;53.484;10.216;2024-03-29T11:28:30;10.20;99.90
13572;DHT22;6857;53.484;10.216;2024-03-29T11:31:07;10.20;99.90
13572;DHT22;6857;53.484;10.216;2024-03-29T11:33:44;10.20;99.90
13572;DHT22;6857;53.484;10.216;2024-03-29T11:36:22;10.40;99.90
13572;DHT22;6857;53.484;10.216;2024-03-29T11:38:51;10.40;99.90
13572;DHT22;6857;53.484;10.216;2024-03-29T11:41:27;10.50;99.90
13572;DHT22;6857;53.484;10.216;2024-03-29T11:43:56;10.60;99.90
13572;DHT22;6857;53.484;10.216;2024-03-29T11:46:23;10.70;99.90
13572;DHT22;6857;53.484;10.216;2024-03-29T11:48:49;10.70;99.90
13572;DHT22;6857;53.484;10.216;2024-03-29T11:51:19;10.80;99.90
13572;DHT22;6857;53.484;10.216;2024-03-29T11:53:47;11.00;99.90
13572;DHT22;6857;53.484;10.216;2024-03-29T11:56:13;11.10;99.90
13572;DHT22;6857;53.484;10.216;2024-03-29T11:58:40;11.10;99.90
13572;DHT22;6857;53.484;10.216;2024-03-29T12:01:06;11.20;99.90
13572;DHT22;6857;53.484;10.216;2024-03-29T12:03:32;11.30;99.90
13572;DHT22;6857;53.484;10.216;2024-03-29T12:05:59;11.10;99.90
13572;DHT22;6857;53.484;10.216;2024-03-29T12:08:31;11.10;99.90
13572;DHT22;6857;53.484;10.216;2024-03-29T12:11:01;11.10;99.90
13572;DHT22;6857;53.484;10.216;2024-03-29T12:13:27;11.10;99.90
13572;DHT22;6857;53.484;10.216;2024-03-29T12:15:53;11.00;99.90
13572;DHT22;6857;53.484;10.216;2024-03-29T12:18:25;11.00;99.90
13572;DHT22;6857;53.484;10.216;2024-03-29T12:20:51;11.00;99.90
13572;DHT22;6857;53.484;10.216;2024-03-29T12:23:19;11.00;99.90
13572;DHT22;6857;53.484;10.216;2024-03-29T12:25:45;11.10;99.90
13572;DHT22;6857;53.484;10.216;2024-03-29T12:28:13;11.20;99.90
13572;DHT22;6857;53.484;10.216;2024-03-29T12:30:41;11.30;99.90
13572;DHT22;6857;53.484;10.216;2024-03-29T12:33:10;11.40;99.90
13572;DHT22;6857;53.484;10.216;2024-03-29T12:35:37;11.60;99.90
13572;DHT22;6857;53.484;10.216;2024-03-29T12:38:04;11.70;99.90
13572;DHT22;6857;53.484;10.216;2024-03-29T12:40:31;11.70;99.90
13572;DHT22;6857;53.484;10.216;2024-03-29T12:43:02;10.30;99.90
13572;DHT22;6857;53.484;10.216;2024-03-29T12:45:28;12.00;99.90
13572;DHT22;6857;53.484;10.216;2024-03-29T12:47:54;12.10;99.90
13572;DHT22;6857;53.484;10.216;2024-03-29T12:50:28;12.10;99.90
13572;DHT22;6857;53.484;10.216;2024-03-29T12:52:56;12.20;99.90
13572;DHT22;6857;53.484;10.216;2024-03-29T12:55:22;12.20;99.90
13572;DHT22;6857;53.484;10.216;2024-03-29T12:57:49;12.20;99.90
13572;DHT22;6857;53.484;10.216;2024-03-29T13:00:14;12.50;99.90
13572;DHT22;6857;53.484;10.216;2024-03-29T13:02:40;12.00;99.90
13572;DHT22;6857;53.484;10.216;2024-03-29T13:05:06;11.90;99.90
13572;DHT22;6857;53.484;10.216;2024-03-29T13:07:32;11.90;99.90
13572;DHT22;6857;53.484;10.216;2024-03-29T13:09:59;12.00;99.90
13572;DHT22;6857;53.484;10.216;2024-03-29T13:12:29;11.90;99.90
13572;DHT22;6857;53.484;10.216;2024-03-29T13:14:54;11.80;99.90
13572;DHT22;6857;53.484;10.216;2024-03-29T13:17:20;11.90;99.90
13572;DHT22;6857;53.484;10.216;2024-03-29T13:19:45;11.80;99.90
13572;DHT22;6857;53.484;10.216;2024-03-29T13:22:11;12.00;99.90
13572;DHT22;6857;53.484;10.216;2024-03-29T13:24:38;12.00;99.90
13572;DHT22;6857;53.484;10.216;2024-03-29T13:27:03;12.00;99.90
13572;DHT22;6857;53.484;10.216;2024-03-29T13:29:30;12.10;99.90
13572;DHT22;6857;53.484;10.216;2024-03-29T13:31:56;12.10;99.90
13572;DHT22;6857;53.484;10.216;2024-03-29T13:34:22;12.10;99.90
13572;DHT22;6857;53.484;10.216;2024-03-29T13:36:48;12.20;99.90
13572;DHT22;6857;53.484;10.216;2024-03-29T13:39:14;12.40;99.90
13572;DHT22;6857;53.484;10.216;2024-03-29T13:41:40;12.30;99.90
13572;DHT22;6857;53.484;10.216;2024-03-29T13:44:06;12.20;99.90
13572;DHT22;6857;53.484;10.216;2024-03-29T13:46:36;12.30;99.90
13572;DHT22;6857;53.484;10.216;2024-03-29T13:49:02;12.20;99.90
13572;DHT22;6857;53.484;10.216;2024-03-29T13:51:28;12.20;99.90
13572;DHT22;6857;53.484;10.216;2024-03-29T13:53:54;12.10;99.90
13572;DHT22;6857;53.484;10.216;2024-03-29T13:56:20;12.00;99.90
13572;DHT22;6857;53.484;10.216;2024-03-29T13:58:47;12.00;99.90
13572;DHT22;6857;53.484;10.216;2024-03-29T14:01:13;12.00;99.90
13572;DHT22;6857;53.484;10.216;2024-03-29T14:03:38;12.10;99.90
13572;DHT22;6857;53.484;10.216;2024-03-29T14:06:04;12.30;99.90
13572;DHT22;6857;53.484;10.216;2024-03-29T14:08:31;12.30;99.90
13572;DHT22;6857;53.484;10.216;2024-03-29T14:10:57;12.30;99.90
13572;DHT22;6857;53.484;10.216;2024-03-29T14:13:23;12.30;99.90
13572;DHT22;6857;53.484;10.216;2024-03-29T14:15:49;12.30;99.90
13572;DHT22;6857;53.484;10.216;2024-03-29T14:18:15;12.30;99.90
13572;DHT22;6857;53.484;10.216;2024-03-29T14:20:40;12.40;99.90
13572;DHT22;6857;53.484;10.216;2024-03-29T14:23:06;12.20;99.90
13572;DHT22;6857;53.484;10.216;2024-03-29T14:25:33;12.40;99.90
13572;DHT22;6857;53.484;10.216;2024-03-29T14:28:01;12.40;99.90
13572;DHT22;6857;53.484;10.216;2024-03-29T14:30:27;12.40;99.90
13572;DHT22;6857;53.484;10.216;2024-03-29T14:32:57;12.50;99.90
13572;DHT22;6857;53.484;10.216;2024-03-29T14:35:22;12.60;99.90
13572;DHT22;6857;53.484;10.216;2024-03-29T14:37:49;12.80;99.90
13572;DHT22;6857;53.484;10.216;2024-03-29T14:40:15;13.10;99.90
13572;DHT22;6857;53.484;10.216;2024-03-29T14:42:44;13.50;99.90
13572;DHT22;6857;53.484;10.216;2024-03-29T14:45:10;13.90;99.90
13572;DHT22;6857;53.484;10.216;2024-03-29T14:47:39;14.20;99.90
13572;DHT22;6857;53.484;10.216;2024-03-29T14:50:07;14.40;99.90
13572;DHT22;6857;53.484;10.216;2024-03-29T14:52:42;14.50;99.90
13572;DHT22;6857;53.484;10.216;2024-03-29T14:55:08;14.30;99.90
13572;DHT22;6857;53.484;10.216;2024-03-29T14:57:33;14.30;99.90
13572;DHT22;6857;53.484;10.216;2024-03-29T14:59:59;14.40;99.90
13572;DHT22;6857;53.484;10.216;2024-03-29T15:02:25;14.50;99.90
13572;DHT22;6857;53.484;10.216;2024-03-29T15:04:50;14.60;99.90
13572;DHT22;6857;53.484;10.216;2024-03-29T15:07:16;14.30;99.90
13572;DHT22;6857;53.484;10.216;2024-03-29T15:09:41;14.30;99.90
13572;DHT22;6857;53.484;10.216;2024-03-29T15:12:07;14.60;99.90
13572;DHT22;6857;53.484;10.216;2024-03-29T15:14:34;14.20;99.90
13572;DHT22;6857;53.484;10.216;2024-03-29T15:17:03;13.80;99.90
13572;DHT22;6857;53.484;10.216;2024-03-29T15:19:29;13.70;99.90
13572;DHT22;6857;53.484;10.216;2024-03-29T15:21:55;13.50;99.90
13572;DHT22;6857;53.484;10.216;2024-03-29T15:24:21;13.30;99.90
13572;DHT22;6857;53.484;10.216;2024-03-29T15:26:47;13.20;99.90
13572;DHT22;6857;53.484;10.216;2024-03-29T15:29:13;13.20;99.90
13572;DHT22;6857;53.484;10.216;2024-03-29T15:31:41;13.20;99.90
13572;DHT22;6857;53.484;10.216;2024-03-29T15:34:09;13.30;99.90
13572;DHT22;6857;53.484;10.216;2024-03-29T15:36:36;13.40;99.90
13572;DHT22;6857;53.484;10.216;2024-03-29T15:39:03;13.40;99.90
13572;DHT22;6857;53.484;10.216;2024-03-29T15:41:36;13.30;99.90